Time;durP1;ratioP1;P1;durP2;ratioP2;P2;SDS_P1;SDS_P2;PMS_P1;PMS_P2;Temp;Humidity;BMP_temperature;BMP_pressure;BME280_temperature;BME280_humidity;BME280_pressure;Samples;Min_cycle;Max_cycle;Signal;HPM_P1;HPM_P2
2023/04/15 00:00:02;;;;;;;5.47;3.80;;;;;;;;;;4922065;29;20043;-85
2023/04/15 00:02:29;;;;;;;8.07;3.55;;;;;;;;;;4930043;29;20551;-84
2023/04/15 00:04:55;;;;;;;5.85;4.40;;;;;;;;;;4921288;29;20068;-84
2023/04/15 00:07:20;;;;;;;7.38;3.25;;;;;;;;;;4915164;29;20052;-85
2023/04/15 00:09:46;;;;;;;8.23;3.95;;;;;;;;;;4923906;29;20058;-85
2023/04/15 00:12:12;;;;;;;9.05;4.00;;;;;;;;;;4920918;29;20035;-84
2023/04/15 00:14:39;;;;;;;10.43;3.78;;;;;;;;;;4929702;29;20544;-84
2023/04/15 00:17:05;;;;;;;11.63;4.22;;;;;;;;;;4929005;29;20039;-85
2023/04/15 00:19:32;;;;;;;8.85;3.90;;;;;;;;;;4921094;29;20465;-84
2023/04/15 00:21:58;;;;;;;9.18;4.18;;;;;;;;;;4924215;29;20098;-84
2023/04/15 00:24:24;;;;;;;7.43;3.92;;;;;;;;;;4919101;29;20039;-84
2023/04/15 00:26:50;;;;;;;8.32;4.10;;;;;;;;;;4925204;29;20122;-85
2023/04/15 00:29:16;;;;;;;9.40;4.05;;;;;;;;;;4928161;29;20050;-85
2023/04/15 00:31:42;;;;;;;7.75;4.00;;;;;;;;;;4920620;29;20040;-85
2023/04/15 00:34:08;;;;;;;8.02;4.05;;;;;;;;;;4915442;29;20048;-85
2023/04/15 00:36:34;;;;;;;8.55;4.55;;;;;;;;;;4922982;29;20063;-86
2023/04/15 00:39:02;;;;;;;10.07;4.05;;;;;;;;;;4944665;29;20049;-85
2023/04/15 00:41:28;;;;;;;7.70;4.25;;;;;;;;;;4936522;29;20106;-84
2023/04/15 00:43:54;;;;;;;8.80;4.00;;;;;;;;;;4937542;29;20158;-85
2023/04/15 00:46:21;;;;;;;6.80;3.53;;;;;;;;;;4933932;29;20515;-85
2023/04/15 00:48:47;;;;;;;6.38;3.60;;;;;;;;;;4916020;29;20051;-84
2023/04/15 00:51:13;;;;;;;8.90;4.55;;;;;;;;;;4924998;29;20485;-84
2023/04/15 00:53:40;;;;;;;9.88;3.67;;;;;;;;;;4940761;29;20451;-84
2023/04/15 00:56:06;;;;;;;6.30;3.45;;;;;;;;;;4924324;29;20106;-85
2023/04/15 00:58:32;;;;;;;7.13;3.70;;;;;;;;;;4918673;29;20210;-85
2023/04/15 01:00:58;;;;;;;6.82;4.30;;;;;;;;;;4926435;29;20114;-84
2023/04/15 01:03:24;;;;;;;11.40;3.97;;;;;;;;;;4921507;29;20043;-84
2023/04/15 01:05:57;;;;;;;9.02;3.88;;;;;;;;;;4935132;29;20050;-85
2023/04/15 01:08:23;;;;;;;8.05;4.18;;;;;;;;;;4944165;29;20058;-85
2023/04/15 01:10:49;;;;;;;5.63;3.60;;;;;;;;;;4916204;29;20512;-85
2023/04/15 01:13:15;;;;;;;7.68;3.53;;;;;;;;;;4919383;29;20054;-85
2023/04/15 01:15:42;;;;;;;6.97;4.03;;;;;;;;;;4919542;29;20070;-86
2023/04/15 01:18:08;;;;;;;10.70;4.30;;;;;;;;;;4937461;29;20905;-85
2023/04/15 01:20:35;;;;;;;8.25;4.13;;;;;;;;;;4920396;29;20565;-84
2023/04/15 01:23:01;;;;;;;6.38;3.92;;;;;;;;;;4923857;29;20051;-85
2023/04/15 01:25:31;;;;;;;11.48;4.07;;;;;;;;;;4927459;29;20052;-84
2023/04/15 01:27:58;;;;;;;8.48;4.50;;;;;;;;;;4926514;29;20050;-86
2023/04/15 01:30:25;;;;;;;8.85;4.60;;;;;;;;;;4925357;29;20070;-84
2023/04/15 01:32:51;;;;;;;8.02;4.70;;;;;;;;;;4916551;29;20051;-85
2023/04/15 01:35:17;;;;;;;8.77;4.82;;;;;;;;;;4917947;29;20461;-84
2023/04/15 01:37:44;;;;;;;9.02;4.72;;;;;;;;;;4917324;29;20071;-84
2023/04/15 01:40:10;;;;;;;12.95;4.95;;;;;;;;;;4928463;29;20409;-84
2023/04/15 01:42:37;;;;;;;8.15;4.90;;;;;;;;;;4926850;29;20054;-85
2023/04/15 01:45:03;;;;;;;14.45;5.10;;;;;;;;;;4925520;29;20035;-84
2023/04/15 01:47:29;;;;;;;8.18;4.45;;;;;;;;;;4932195;29;20047;-84
2023/04/15 01:49:55;;;;;;;9.98;4.95;;;;;;;;;;4922987;29;20035;-84
2023/04/15 01:52:21;;;;;;;7.07;4.65;;;;;;;;;;4945267;29;20123;-85
2023/04/15 01:54:47;;;;;;;8.13;4.97;;;;;;;;;;4927939;29;20529;-84
2023/04/15 01:57:13;;;;;;;9.95;4.97;;;;;;;;;;4922730;29;20059;-84
2023/04/15 01:59:39;;;;;;;7.97;4.82;;;;;;;;;;4939697;29;20043;-85
2023/04/15 02:02:06;;;;;;;7.80;4.97;;;;;;;;;;4926215;29;20077;-84
2023/04/15 02:04:33;;;;;;;9.10;4.70;;;;;;;;;;4927068;29;20048;-85
2023/04/15 02:06:59;;;;;;;13.98;5.45;;;;;;;;;;4923718;29;20054;-85
2023/04/15 02:09:25;;;;;;;12.20;5.20;;;;;;;;;;4922684;29;20502;-85
2023/04/15 02:11:53;;;;;;;8.27;5.55;;;;;;;;;;4923527;29;20046;-85
2023/04/15 02:14:19;;;;;;;9.90;5.78;;;;;;;;;;4931616;28;20046;-85
2023/04/15 02:16:45;;;;;;;9.70;5.63;;;;;;;;;;4947638;28;20094;-84
2023/04/15 02:19:11;;;;;;;11.43;5.68;;;;;;;;;;4943815;29;20046;-84
2023/04/15 02:21:37;;;;;;;10.75;6.47;;;;;;;;;;4920367;29;20117;-84
2023/04/15 02:24:03;;;;;;;13.43;5.82;;;;;;;;;;4925314;29;20086;-84
2023/04/15 02:26:31;;;;;;;11.13;4.80;;;;;;;;;;4939736;29;20126;-84
2023/04/15 02:28:57;;;;;;;11.85;5.75;;;;;;;;;;4927485;29;20047;-84
2023/04/15 02:31:24;;;;;;;9.70;5.60;;;;;;;;;;4946309;29;20063;-85
2023/04/15 02:33:50;;;;;;;10.48;6.35;;;;;;;;;;4940959;29;20513;-85
2023/04/15 02:36:16;;;;;;;8.65;5.68;;;;;;;;;;4921961;29;20031;-84
2023/04/15 02:38:42;;;;;;;12.77;5.55;;;;;;;;;;4922418;29;20553;-85
2023/04/15 02:41:11;;;;;;;9.32;5.40;;;;;;;;;;4922524;29;20424;-84
2023/04/15 02:43:38;;;;;;;8.75;5.57;;;;;;;;;;4927841;28;20043;-85
2023/04/15 02:46:05;;;;;;;10.35;6.57;;;;;;;;;;4922760;29;20175;-86
2023/04/15 02:48:31;;;;;;;10.90;6.20;;;;;;;;;;4941833;29;20058;-84
2023/04/15 02:51:13;;;;;;;9.55;6.43;;;;;;;;;;4926945;29;20130;-84
2023/04/15 02:53:40;;;;;;;11.88;6.55;;;;;;;;;;4923399;29;20075;-84
2023/04/15 02:56:07;;;;;;;12.02;5.85;;;;;;;;;;4925135;28;20094;-84
2023/04/15 02:58:33;;;;;;;11.52;6.68;;;;;;;;;;4918790;29;20051;-84
2023/04/15 03:00:59;;;;;;;10.45;6.50;;;;;;;;;;4918766;29;20054;-84
2023/04/15 03:03:27;;;;;;;12.63;6.53;;;;;;;;;;4927712;29;20098;-84
2023/04/15 03:05:53;;;;;;;10.77;6.28;;;;;;;;;;4925248;29;20413;-87
2023/04/15 03:08:20;;;;;;;9.98;5.80;;;;;;;;;;4928837;29;20047;-84
2023/04/15 03:10:46;;;;;;;9.57;5.22;;;;;;;;;;4925359;29;20043;-85
2023/04/15 03:13:12;;;;;;;8.43;5.22;;;;;;;;;;4925288;29;20118;-84
2023/04/15 03:15:38;;;;;;;10.38;5.22;;;;;;;;;;4924833;29;20074;-84
2023/04/15 03:18:04;;;;;;;9.57;6.50;;;;;;;;;;4935781;29;20036;-84
2023/04/15 03:20:30;;;;;;;9.23;6.43;;;;;;;;;;4928747;29;20047;-84
2023/04/15 03:22:57;;;;;;;13.02;6.63;;;;;;;;;;4920216;29;20560;-84
2023/04/15 03:25:22;;;;;;;14.57;7.43;;;;;;;;;;4938227;29;20162;-84
2023/04/15 03:27:48;;;;;;;11.00;6.55;;;;;;;;;;4936216;29;20127;-85
2023/04/15 03:30:15;;;;;;;11.05;6.85;;;;;;;;;;4921140;29;20390;-84
2023/04/15 03:32:41;;;;;;;11.35;6.72;;;;;;;;;;4922701;29;20047;-84
2023/04/15 03:35:07;;;;;;;13.38;6.40;;;;;;;;;;4926060;29;20568;-84
2023/04/15 03:37:33;;;;;;;12.07;7.45;;;;;;;;;;4924889;29;20075;-85
2023/04/15 03:39:59;;;;;;;11.68;6.97;;;;;;;;;;4922001;29;20050;-84
2023/04/15 03:42:25;;;;;;;11.52;6.88;;;;;;;;;;4925611;29;20047;-85
2023/04/15 03:44:51;;;;;;;11.80;6.38;;;;;;;;;;4924598;29;20121;-84
2023/04/15 03:47:17;;;;;;;11.10;7.25;;;;;;;;;;4937125;28;20387;-85
2023/04/15 03:49:43;;;;;;;13.25;7.95;;;;;;;;;;4937913;28;20043;-85
2023/04/15 03:52:10;;;;;;;11.10;6.53;;;;;;;;;;4934091;29;20051;-85
2023/04/15 03:54:35;;;;;;;12.60;7.90;;;;;;;;;;4915415;29;20347;-84
2023/04/15 03:57:02;;;;;;;11.07;7.53;;;;;;;;;;4923052;29;20137;-84
2023/04/15 03:59:28;;;;;;;13.40;7.75;;;;;;;;;;4927311;29;20489;-85
2023/04/15 04:01:54;;;;;;;9.70;6.75;;;;;;;;;;4914173;29;20564;-84
2023/04/15 04:04:20;;;;;;;12.23;7.18;;;;;;;;;;4924704;29;20070;-84
2023/04/15 04:06:46;;;;;;;13.18;8.50;;;;;;;;;;4931173;29;20122;-84
2023/04/15 04:09:12;;;;;;;14.68;7.80;;;;;;;;;;4921812;29;20111;-83
2023/04/15 04:11:38;;;;;;;16.10;8.23;;;;;;;;;;4917948;29;20149;-84
2023/04/15 04:14:04;;;;;;;13.73;8.35;;;;;;;;;;4921867;29;20106;-85
2023/04/15 04:16:30;;;;;;;12.40;8.15;;;;;;;;;;4919212;29;20043;-84
2023/04/15 04:18:56;;;;;;;12.45;8.25;;;;;;;;;;4922807;29;20046;-84
2023/04/15 04:21:22;;;;;;;13.38;9.23;;;;;;;;;;4936127;29;20047;-83
2023/04/15 04:23:48;;;;;;;16.73;8.73;;;;;;;;;;4926529;28;20058;-83
2023/04/15 04:26:15;;;;;;;12.43;8.57;;;;;;;;;;4939083;28;20497;-85
2023/04/15 04:28:41;;;;;;;14.63;9.20;;;;;;;;;;4924309;29;20059;-85
2023/04/15 04:31:07;;;;;;;15.40;8.60;;;;;;;;;;4921614;29;20047;-85
2023/04/15 04:33:33;;;;;;;13.07;8.93;;;;;;;;;;4941987;29;20062;-84
2023/04/15 04:35:59;;;;;;;12.45;8.73;;;;;;;;;;4920401;29;20048;-84
2023/04/15 04:38:25;;;;;;;13.68;8.55;;;;;;;;;;4923472;29;20486;-85
2023/04/15 04:40:51;;;;;;;13.43;8.52;;;;;;;;;;4922956;29;20047;-84
2023/04/15 04:43:17;;;;;;;12.75;8.60;;;;;;;;;;4921823;29;20090;-85
2023/04/15 04:45:43;;;;;;;12.48;8.52;;;;;;;;;;4938501;29;20038;-83
2023/04/15 04:48:09;;;;;;;16.88;9.05;;;;;;;;;;4935545;28;20157;-85
2023/04/15 04:50:36;;;;;;;14.27;9.07;;;;;;;;;;4918240;29;22366;-83
2023/04/15 04:53:02;;;;;;;16.75;9.55;;;;;;;;;;4937589;29;20207;-84
2023/04/15 04:55:28;;;;;;;14.88;9.27;;;;;;;;;;4941297;29;20486;-84
2023/04/15 04:57:54;;;;;;;14.75;8.63;;;;;;;;;;4923912;29;20475;-84
2023/04/15 05:00:20;;;;;;;13.15;8.60;;;;;;;;;;4939187;29;20048;-83
2023/04/15 05:02:46;;;;;;;11.45;8.43;;;;;;;;;;4915701;29;20050;-84
2023/04/15 05:05:12;;;;;;;12.65;8.02;;;;;;;;;;4919245;29;20082;-84
2023/04/15 05:07:38;;;;;;;12.93;8.68;;;;;;;;;;4920769;29;20039;-84
2023/04/15 05:10:05;;;;;;;14.15;8.55;;;;;;;;;;4918293;29;20047;-85
2023/04/15 05:12:31;;;;;;;12.57;8.35;;;;;;;;;;4942408;29;20097;-85
2023/04/15 05:14:57;;;;;;;12.15;8.60;;;;;;;;;;4923785;29;20051;-84
2023/04/15 05:17:23;;;;;;;17.55;10.38;;;;;;;;;;4922031;29;20047;-83
2023/04/15 05:19:49;;;;;;;13.15;8.68;;;;;;;;;;4933246;29;20039;-84
2023/04/15 05:22:15;;;;;;;12.50;7.97;;;;;;;;;;4941128;28;20055;-86
2023/04/15 05:24:41;;;;;;;16.55;9.90;;;;;;;;;;4932160;29;20054;-84
2023/04/15 05:27:09;;;;;;;12.60;8.77;;;;;;;;;;4944378;29;20081;-83
2023/04/15 05:29:35;;;;;;;12.20;8.73;;;;;;;;;;4923937;29;20050;-84
2023/04/15 05:32:01;;;;;;;13.70;9.07;;;;;;;;;;4922397;29;20082;-85
2023/04/15 05:34:27;;;;;;;13.52;7.43;;;;;;;;;;4930270;29;20087;-85
2023/04/15 05:36:53;;;;;;;12.90;9.02;;;;;;;;;;4925385;29;20589;-85
2023/04/15 05:39:19;;;;;;;13.93;9.23;;;;;;;;;;4935467;29;20090;-84
2023/04/15 05:41:45;;;;;;;12.68;8.60;;;;;;;;;;4933750;29;20074;-84
2023/04/15 05:44:11;;;;;;;11.73;7.93;;;;;;;;;;4929838;28;20509;-84
2023/04/15 05:46:37;;;;;;;14.43;9.27;;;;;;;;;;4931884;29;20058;-85
2023/04/15 05:49:03;;;;;;;13.23;9.00;;;;;;;;;;4916259;29;20058;-84
2023/04/15 05:51:29;;;;;;;14.43;9.60;;;;;;;;;;4947971;29;20110;-85
2023/04/15 05:53:55;;;;;;;15.95;9.90;;;;;;;;;;4944973;29;20047;-85
2023/04/15 05:56:21;;;;;;;16.52;10.23;;;;;;;;;;4945185;28;20051;-84
2023/04/15 05:58:47;;;;;;;16.13;11.27;;;;;;;;;;4923662;29;20055;-84
2023/04/15 06:01:14;;;;;;;13.52;9.23;;;;;;;;;;4924410;29;20483;-85
2023/04/15 06:03:40;;;;;;;16.63;10.65;;;;;;;;;;4933460;29;20051;-84
2023/04/15 06:06:06;;;;;;;15.63;10.20;;;;;;;;;;4942644;29;20070;-86
2023/04/15 06:08:32;;;;;;;13.98;9.88;;;;;;;;;;4922386;29;20514;-84
2023/04/15 06:10:58;;;;;;;13.32;9.35;;;;;;;;;;4945751;29;20519;-84
2023/04/15 06:13:24;;;;;;;13.98;9.68;;;;;;;;;;4933055;29;20046;-84
2023/04/15 06:15:50;;;;;;;16.35;9.73;;;;;;;;;;4943671;29;20125;-84
2023/04/15 06:18:16;;;;;;;18.40;10.10;;;;;;;;;;4926607;29;20416;-84
2023/04/15 06:20:42;;;;;;;13.82;9.90;;;;;;;;;;4928989;29;20047;-84
2023/04/15 06:23:08;;;;;;;13.35;9.50;;;;;;;;;;4943984;28;20584;-84
2023/04/15 06:25:34;;;;;;;13.38;9.25;;;;;;;;;;4949089;29;20051;-85
2023/04/15 06:28:00;;;;;;;13.90;10.15;;;;;;;;;;4929987;28;20039;-84
2023/04/15 06:30:26;;;;;;;15.23;8.95;;;;;;;;;;4938969;29;21027;-84
2023/04/15 06:32:52;;;;;;;13.07;9.48;;;;;;;;;;4922075;29;20628;-85
2023/04/15 06:35:18;;;;;;;13.95;8.70;;;;;;;;;;4927184;29;20050;-85
2023/04/15 06:37:44;;;;;;;15.77;9.43;;;;;;;;;;4929874;29;20375;-84
2023/04/15 06:40:10;;;;;;;13.23;8.70;;;7.80;99.90;;;;;;4920985;29;20047;-84
2023/04/15 06:42:37;;;;;;;12.98;8.35;;;;;;;;;;4933529;29;20075;-85
2023/04/15 06:45:03;;;;;;;12.95;8.35;;;;;;;;;;4924066;29;20051;-85
2023/04/15 06:47:29;;;;;;;14.02;8.98;;;;;;;;;;4919412;29;20475;-84
2023/04/15 06:49:55;;;;;;;12.45;9.00;;;;;;;;;;4926690;29;20047;-85
2023/04/15 06:52:21;;;;;;;13.52;9.23;;;;;;;;;;4928553;29;20046;-85
2023/04/15 06:54:47;;;;;;;13.48;9.00;;;;;;;;;;4943191;29;20047;-87
2023/04/15 06:57:13;;;;;;;15.05;9.82;;;;;;;;;;4932997;29;20093;-86
2023/04/15 06:59:39;;;;;;;13.02;8.65;;;;;;;;;;4902227;29;20442;-85
2023/04/15 07:02:05;;;;;;;12.30;9.13;;;;;;;;;;4924627;29;20090;-86
2023/04/15 07:04:32;;;;;;;15.05;8.60;;;;;;;;;;4918553;29;20421;-85
2023/04/15 07:06:59;;;;;;;14.43;9.10;;;;;;;;;;4930809;29;20055;-85
2023/04/15 07:09:25;;;;;;;12.65;8.90;;;;;;;;;;4921903;29;20079;-86
2023/04/15 07:11:51;;;;;;;15.57;9.82;;;;;;;;;;4922916;29;20043;-86
2023/04/15 07:14:17;;;;;;;13.80;8.63;;;;;;;;;;4909044;29;20047;-87
2023/04/15 07:16:43;;;;;;;13.98;9.65;;;;;;;;;;4916923;29;20051;-85
2023/04/15 07:19:09;;;;;;;11.63;8.90;;;;;;;;;;4928772;29;20043;-85
2023/04/15 07:21:35;;;;;;;14.23;9.52;;;;;;;;;;4916556;29;20094;-87
2023/04/15 07:24:01;;;;;;;12.70;9.40;;;;;;;;;;4904066;29;20047;-87
2023/04/15 07:26:27;;;;;;;15.82;8.85;;;;;;;;;;4921881;29;20544;-87
2023/04/15 07:28:53;;;;;;;11.18;8.32;;;;;;;;;;4927272;29;20447;-86
2023/04/15 07:31:22;;;;;;;12.35;9.10;;;;;;;;;;4919897;29;20435;-86
2023/04/15 07:33:48;;;;;;;15.50;9.68;;;;;;;;;;4923102;29;20040;-87
2023/04/15 07:36:14;;;;;;;16.52;9.60;;;;;;;;;;4913217;29;20482;-86
2023/04/15 07:38:42;;;;;;;15.48;9.00;;;;;;;;;;4918416;29;20053;-87
2023/04/15 07:41:33;;;;;;;18.25;11.35;;;;;;;;;;4919648;29;20051;-86
2023/04/15 07:48:10;;;;;;;15.43;9.00;;;10.60;99.90;;;;;;4935759;28;20099;-87
2023/04/15 07:50:51;;;;;;;15.30;8.95;;;;;;;;;;4923062;29;20142;-86
2023/04/15 07:53:18;;;;;;;13.35;8.45;;;;;;;;;;4926129;29;20055;-86
2023/04/15 07:55:44;;;;;;;11.20;7.90;;;;;;;;;;4915266;29;20134;-86
2023/04/15 07:58:10;;;;;;;12.35;8.43;;;;;;;;;;4900413;29;20063;-87
2023/04/15 08:00:37;;;;;;;13.13;8.18;;;;;;;;;;4922203;29;20405;-87
2023/04/15 08:03:03;;;;;;;12.48;7.15;;;;;;;;;;4903648;29;20125;-87
2023/04/15 08:05:29;;;;;;;10.30;6.68;;;;;;;;;;4929768;29;20043;-87
2023/04/15 08:07:55;;;;;;;7.95;6.45;;;;;;;;;;4937496;29;20047;-87
2023/04/15 08:10:21;;;;;;;10.70;7.15;;;;;;;;;;4923153;29;20134;-86
2023/04/15 08:12:48;;;;;;;17.95;6.90;;;;;;;;;;4915128;29;20442;-86
2023/04/15 08:15:14;;;;;;;9.40;6.43;;;;;;;;;;4924306;29;20919;-87
2023/04/15 08:17:40;;;;;;;11.00;6.13;;;;;;;;;;4917184;29;20501;-86
2023/04/15 08:20:06;;;;;;;9.70;6.18;;;;;;;;;;4916157;29;20047;-86
2023/04/15 08:22:33;;;;;;;6.03;4.75;;;;;;;;;;4934871;29;20051;-88
2023/04/15 08:24:59;;;;;;;7.25;5.05;;;;;;;;;;4921394;29;20044;-87
2023/04/15 08:27:25;;;;;;;9.73;4.50;;;;;;;;;;4921372;29;20103;-86
2023/04/15 08:29:51;;;;;;;6.70;4.78;;;;;;;;;;4923407;29;20537;-86
2023/04/15 08:32:17;;;;;;;7.93;5.05;;;;;;;;;;4917181;29;20044;-86
2023/04/15 08:34:43;;;;;;;7.50;5.22;;;;;;;;;;4917688;28;20142;-86
2023/04/15 08:37:09;;;;;;;6.88;4.70;;;;;;;;;;4909691;29;20130;-86
2023/04/15 08:39:35;;;;;;;7.22;4.78;;;;;;;;;;4922930;29;20119;-86
2023/04/15 08:42:02;;;;;;;7.68;4.75;;;10.70;99.90;;;;;;4935805;29;20494;-86
2023/04/15 08:44:30;;;;;;;7.80;4.50;;;;;;;;;;4931999;29;20548;-86
2023/04/15 08:47:00;;;;;;;9.95;5.40;;;10.60;99.90;;;;;;4918149;29;20059;-86
2023/04/15 08:49:27;;;;;;;8.07;4.88;;;;;;;;;;4922867;29;20332;-86
2023/04/15 08:51:55;;;;;;;8.77;5.35;;;;;;;;;;4918349;29;20051;-87
2023/04/15 08:54:22;;;;;;;6.00;4.35;;;;;;;;;;4919137;29;20043;-87
2023/04/15 08:56:48;;;;;;;8.48;5.60;;;;;;;;;;4924837;29;20114;-86
2023/04/15 08:59:15;;;;;;;6.72;4.45;;;;;;;;;;4905179;29;20048;-88
2023/04/15 09:01:41;;;;;;;6.80;4.80;;;;;;;;;;4899401;29;20063;-86
2023/04/15 09:04:07;;;;;;;8.13;4.45;;;;;;;;;;4915360;29;20043;-86
2023/04/15 09:06:33;;;;;;;6.05;4.70;;;;;;;;;;4912647;29;20139;-86
2023/04/15 09:09:00;;;;;;;5.93;4.00;;;;;;;;;;4924761;29;20043;-86
2023/04/15 09:11:26;;;;;;;7.28;4.40;;;;;;;;;;4916243;29;20055;-86
2023/04/15 09:13:52;;;;;;;5.85;4.20;;;;;;;;;;4923012;29;20512;-86
2023/04/15 09:16:18;;;;;;;7.50;4.13;;;;;;;;;;4929024;29;20039;-86
2023/04/15 09:18:44;;;;;;;7.25;4.18;;;;;;;;;;4904113;29;20099;-87
2023/04/15 09:21:14;;;;;;;7.93;4.15;;;;;;;;;;4915157;29;20122;-87
2023/04/15 09:23:53;;;;;;;7.13;3.40;;;10.00;99.90;;;;;;4918836;29;20560;-87
2023/04/15 09:26:19;;;;;;;5.82;3.35;;;;;;;;;;4921095;29;20047;-87
2023/04/15 09:28:45;;;;;;;8.45;4.07;;;;;;;;;;4905212;29;20051;-87
2023/04/15 09:31:11;;;;;;;8.02;4.18;;;;;;;;;;4923244;28;20051;-87
2023/04/15 09:33:53;;;;;;;7.22;3.70;;;;;;;;;;4937643;28;20094;-87
2023/04/15 09:36:19;;;;;;;4.20;3.22;;;;;;;;;;4919219;29;20047;-86
2023/04/15 09:38:58;;;;;;;6.97;3.72;;;;;;;;;;4919220;29;20035;-87
2023/04/15 09:41:27;;;;;;;6.05;3.17;;;;;;;;;;4918946;29;20190;-85
2023/04/15 09:43:53;;;;;;;6.43;3.70;;;;;;;;;;4905274;29;20134;-86
2023/04/15 09:46:19;;;;;;;10.32;5.30;;;;;;;;;;4904456;29;20049;-85
2023/04/15 09:48:45;;;;;;;6.18;3.78;;;;;;;;;;4919429;29;20451;-87
2023/04/15 09:51:11;;;;;;;4.93;3.30;;;;;;;;;;4918666;29;20047;-87
2023/04/15 09:53:37;;;;;;;8.27;4.25;;;;;;;;;;4937973;29;20138;-86
2023/04/15 09:56:06;;;;;;;9.38;3.45;;;;;;;;;;4920720;29;20421;-87
2023/04/15 09:58:33;;;;;;;7.70;3.50;;;;;;;;;;4920718;29;20509;-87
2023/04/15 10:01:00;;;;;;;8.32;3.45;;;;;;;;;;4907656;29;20383;-86
2023/04/15 10:03:30;;;;;;;4.95;3.05;;;;;;;;;;4921403;29;20130;-86
2023/04/15 10:05:59;;;;;;;6.40;3.35;;;10.60;99.90;;;;;;4924722;29;20050;-87
2023/04/15 10:08:30;;;;;;;4.65;2.45;;;;;;;;;;4919812;29;20053;-89
2023/04/15 10:10:56;;;;;;;6.75;2.75;;;;;;;;;;4911678;28;20619;-86
2023/04/15 10:13:29;;;;;;;7.70;2.92;;;11.00;99.90;;;;;;4926004;29;20102;-87
2023/04/15 10:15:59;;;;;;;4.82;3.15;;;11.10;99.90;;;;;;4924997;29;20070;-86
2023/04/15 10:18:26;;;;;;;4.20;2.50;;;;;;;;;;4927887;29;20134;-88
2023/04/15 10:20:52;;;;;;;5.15;2.53;;;;;;;;;;4922057;29;20043;-88
2023/04/15 10:23:19;;;;;;;3.45;2.35;;;11.10;99.90;;;;;;4926314;29;20042;-87
2023/04/15 10:25:46;;;;;;;3.35;1.98;;;;;;;;;;4919451;29;20056;-87
2023/04/15 10:28:12;;;;;;;4.88;1.70;;;;;;;;;;4922323;29;20573;-87
2023/04/15 10:30:38;;;;;;;3.88;1.58;;;;;;;;;;4926662;29;20050;-88
2023/04/15 10:33:05;;;;;;;3.00;1.20;;;11.20;99.90;;;;;;4904800;29;20039;-87
2023/04/15 10:35:32;;;;;;;3.85;1.75;;;;;;;;;;4906015;29;20048;-87
2023/04/15 10:37:59;;;;;;;4.43;2.03;;;;;;;;;;4925600;29;20035;-88
2023/04/15 10:40:33;;;;;;;4.47;1.75;;;11.20;99.90;;;;;;4924644;29;20046;-88
2023/04/15 10:43:01;;;;;;;4.50;1.80;;;10.90;99.90;;;;;;4901875;29;20047;-87
2023/04/15 10:45:30;;;;;;;3.78;1.27;;;11.00;99.90;;;;;;4923839;29;20055;-89
2023/04/15 10:47:57;;;;;;;2.15;1.63;;;;;;;;;;4904697;29;20463;-88
2023/04/15 10:50:25;;;;;;;3.95;1.33;;;;;;;;;;4918035;29;20043;-87
2023/04/15 10:52:51;;;;;;;3.47;1.65;;;;;;;;;;4911799;29;20040;-87
2023/04/15 10:55:23;;;;;;;1.90;1.30;;;11.10;99.90;;;;;;4926390;29;20506;-87
2023/04/15 10:57:59;;;;;;;1.90;1.70;;;10.90;99.90;;;;;;4912494;29;20383;-87
2023/04/15 11:00:29;;;;;;;2.95;1.75;;;12.30;99.90;;;;;;4932049;28;20040;-88
2023/04/15 11:03:10;;;;;;;2.30;1.58;;;11.10;99.90;;;;;;4928554;29;20529;-87
2023/04/15 11:05:42;;;;;;;3.80;1.65;;;;;;;;;;4923587;29;20150;-87
2023/04/15 11:08:09;;;;;;;3.20;1.73;;;;;;;;;;4920668;29;20050;-87
2023/04/15 11:10:35;;;;;;;6.60;2.03;;;;;;;;;;4921130;29;20073;-88
2023/04/15 11:13:03;;;;;;;5.35;1.95;;;11.00;99.90;;;;;;4943777;28;20490;-88
2023/04/15 11:15:37;;;;;;;3.17;1.70;;;;;;;;;;4934175;29;20039;-87
2023/04/15 11:18:09;;;;;;;4.18;1.60;;;10.90;99.90;;;;;;4927564;29;20418;-86
2023/04/15 11:20:35;;;;;;;2.28;1.60;;;;;;;;;;4905800;29;20054;-88
2023/04/15 11:23:01;;;;;;;5.53;3.10;;;;;;;;;;4900607;29;20043;-86
2023/04/15 11:25:28;;;;;;;4.40;2.70;;;11.00;99.90;;;;;;4921832;29;20512;-87
2023/04/15 11:27:55;;;;;;;6.45;2.60;;;;;;;;;;4928159;29;20045;-86
2023/04/15 11:30:23;;;;;;;4.72;2.55;;;10.90;99.90;;;;;;4916133;29;20043;-86
2023/04/15 11:32:49;;;;;;;6.72;4.53;;;;;;;;;;4888813;29;20447;-86
2023/04/15 11:35:18;;;;;;;10.50;3.67;;;10.90;99.90;;;;;;4919329;29;20047;-88
2023/04/15 11:37:45;;;;;;;2.47;2.13;;;10.80;99.90;;;;;;4919634;29;20040;-86
2023/04/15 11:40:12;;;;;;;3.58;1.77;;;;;;;;;;4920136;29;20043;-87
2023/04/15 11:42:38;;;;;;;3.40;2.00;;;;;;;;;;4919628;29;20513;-86
2023/04/15 11:45:08;;;;;;;9.98;5.78;;;;;;;;;;4926091;28;20035;-86
2023/04/15 11:47:35;;;;;;;3.58;2.40;;;10.70;99.90;;;;;;4928148;29;20047;-86
2023/04/15 11:50:21;;;;;;;14.52;7.72;;;10.60;99.90;;;;;;4915467;29;20096;-87
2023/04/15 11:52:56;;;;;;;6.05;3.28;;;10.50;99.90;;;;;;4913692;29;20386;-86
2023/04/15 11:55:23;;;;;;;6.28;2.15;;;;;;;;;;4909340;29;20569;-86
2023/04/15 11:58:08;;;;;;;5.68;2.40;;;;;;;;;;4903840;29;20050;-86
2023/04/15 12:00:34;;;;;;;5.75;2.55;;;;;;;;;;4925105;29;20039;-87
2023/04/15 12:03:13;;;;;;;6.55;2.05;;;;;;;;;;4922178;29;20040;-86
2023/04/15 12:05:58;;;;;;;7.20;4.28;;;;;;;;;;4933873;29;20550;-86
2023/04/15 12:08:24;;;;;;;5.80;2.60;;;;;;;;;;4921723;29;20046;-87
2023/04/15 12:10:50;;;;;;;3.20;2.17;;;;;;;;;;4915971;29;20408;-86
2023/04/15 12:13:16;;;;;;;7.25;2.50;;;;;;;;;;4937532;28;20039;-87
2023/04/15 12:15:43;;;;;;;6.20;2.13;;;;;;;;;;4920966;29;20054;-87
2023/04/15 12:18:16;;;;;;;5.97;3.17;;;;;;;;;;4919753;29;20051;-88
2023/04/15 12:20:46;;;;;;;8.75;2.80;;;10.60;99.90;;;;;;4924535;29;20040;-86
2023/04/15 12:23:12;;;;;;;5.47;2.88;;;;;;;;;;4924222;29;20446;-87
2023/04/15 12:25:38;;;;;;;3.75;2.28;;;;;;;;;;4921069;29;20043;-87
2023/04/15 12:28:10;;;;;;;5.30;2.35;;;10.60;99.90;;;;;;4922282;29;20412;-87
2023/04/15 12:30:37;;;;;;;5.35;1.98;;;;;;;;;;4924320;29;20046;-87
2023/04/15 12:33:03;;;;;;;9.43;2.90;;;;;;;;;;4918109;29;20062;-88
2023/04/15 12:35:29;;;;;;;4.47;1.90;;;;;;;;;;4927749;29;20035;-87
2023/04/15 12:37:55;;;;;;;3.72;2.15;;;;;;;;;;4919613;29;20509;-86
2023/04/15 12:40:24;;;;;;;4.97;1.90;;;;;;;;;;4934987;29;20210;-87
2023/04/15 12:42:50;;;;;;;5.97;2.10;;;;;;;;;;4920257;29;20043;-87
2023/04/15 12:45:16;;;;;;;5.10;1.98;;;;;;;;;;4922814;29;20050;-87
2023/04/15 12:47:42;;;;;;;5.40;1.73;;;;;;;;;;4924614;29;20050;-87
2023/04/15 12:50:08;;;;;;;5.47;1.88;;;;;;;;;;4922217;29;20062;-88
2023/04/15 12:52:34;;;;;;;10.98;6.20;;;;;;;;;;4907334;29;20490;-86
2023/04/15 12:55:00;;;;;;;11.38;4.30;;;;;;;;;;4919832;29;20093;-86
2023/04/15 12:57:26;;;;;;;12.30;2.53;;;;;;;;;;4920934;29;20054;-86
2023/04/15 12:59:52;;;;;;;5.00;2.22;;;;;;;;;;4923196;29;20039;-86
2023/04/15 13:02:19;;;;;;;12.50;2.85;;;;;;;;;;4926656;29;20494;-87
2023/04/15 13:04:45;;;;;;;7.57;2.30;;;;;;;;;;4925592;29;20501;-86
2023/04/15 13:07:12;;;;;;;6.35;2.05;;;;;;;;;;4926728;29;20102;-86
2023/04/15 13:09:38;;;;;;;5.63;1.95;;;;;;;;;;4925257;29;20505;-88
2023/04/15 13:12:04;;;;;;;8.25;1.70;;;;;;;;;;4923781;29;20054;-87
2023/04/15 13:14:30;;;;;;;7.32;1.95;;;;;;;;;;4936880;29;20086;-86
2023/04/15 13:16:57;;;;;;;7.82;1.98;;;;;;;;;;4907197;29;20079;-86
2023/04/15 13:19:22;;;;;;;6.78;2.28;;;;;;;;;;4921572;29;20118;-86
2023/04/15 13:21:49;;;;;;;5.32;1.92;;;;;;;;;;4937282;29;20183;-86
2023/04/15 13:24:15;;;;;;;8.45;2.17;;;;;;;;;;4906898;29;20154;-86
2023/04/15 13:26:41;;;;;;;8.93;2.05;;;;;;;;;;4922617;29;20711;-87
2023/04/15 13:29:07;;;;;;;6.70;1.95;;;;;;;;;;4917588;29;20071;-86
2023/04/15 13:31:33;;;;;;;8.98;1.85;;;;;;;;;;4918072;29;20043;-87
2023/04/15 13:33:59;;;;;;;9.30;2.08;;;;;;;;;;4932508;29;20050;-87
2023/04/15 13:36:26;;;;;;;9.70;1.70;;;;;;;;;;4925185;29;20453;-87
2023/04/15 13:38:52;;;;;;;8.43;2.13;;;;;;;;;;4920393;29;20043;-87
2023/04/15 13:41:19;;;;;;;5.22;1.50;;;;;;;;;;4926873;29;20126;-88
2023/04/15 13:43:46;;;;;;;7.75;2.17;;;;;;;;;;4922053;29;20440;-85
2023/04/15 13:46:12;;;;;;;12.45;2.42;;;;;;;;;;4925571;29;20561;-86
2023/04/15 13:48:39;;;;;;;6.90;2.28;;;;;;;;;;4910421;29;20043;-87
2023/04/15 13:51:05;;;;;;;3.47;1.45;;;;;;;;;;4941608;29;20138;-88
2023/04/15 13:53:32;;;;;;;10.90;2.00;;;;;;;;;;4921410;29;20402;-87
2023/04/15 13:55:58;;;;;;;7.00;1.88;;;;;;;;;;4908429;29;20051;-85
2023/04/15 13:58:24;;;;;;;6.72;1.77;;;;;;;;;;4927113;29;20050;-85
2023/04/15 14:00:50;;;;;;;9.77;1.60;;;;;;;;;;4943497;28;20043;-86
2023/04/15 14:03:16;;;;;;;8.75;1.80;;;;;;;;;;4922326;29;20230;-86
2023/04/15 14:05:42;;;;;;;10.68;2.00;;;;;;;;;;4925443;29;20131;-86
2023/04/15 14:08:08;;;;;;;4.60;1.75;;;;;;;;;;4924495;29;20584;-86
2023/04/15 14:10:34;;;;;;;6.30;2.15;;;10.40;99.90;;;;;;4927410;29;20031;-86
2023/04/15 14:13:00;;;;;;;7.15;3.35;;;;;;;;;;4940283;29;20047;-86
2023/04/15 14:15:26;;;;;;;8.25;4.82;;;;;;;;;;4925997;29;20050;-86
2023/04/15 14:17:52;;;;;;;11.05;3.97;;;;;;;;;;4918616;29;20180;-87
2023/04/15 14:20:18;;;;;;;12.05;3.03;;;;;;;;;;4917980;29;20161;-87
2023/04/15 14:22:44;;;;;;;12.82;2.40;;;;;;;;;;4931566;23;20051;-70
2023/04/15 14:25:10;;;;;;;7.07;1.88;;;;;;;;;;4964671;28;20055;-70
2023/04/15 14:27:36;;;;;;;7.78;2.88;;;;;;;;;;4960144;28;20035;-70